createdAt,value
2018-09-28T00:02:17.757Z,11.90
2018-09-28T00:04:47.398Z,11.90
2018-09-28T00:07:17.137Z,11.90
2018-09-28T00:09:46.917Z,11.90
2018-09-28T00:12:16.610Z,11.90
2018-09-28T00:14:46.360Z,11.90
2018-09-28T00:17:16.053Z,11.80
2018-09-28T00:19:45.785Z,11.80
2018-09-28T00:22:15.473Z,11.70
2018-09-28T00:24:45.100Z,11.70
2018-09-28T00:27:14.780Z,11.70
2018-09-28T00:29:44.474Z,11.70
2018-09-28T00:32:14.128Z,11.60
2018-09-28T00:34:43.823Z,11.50
2018-09-28T00:37:13.728Z,11.50
2018-09-28T00:39:43.449Z,11.60
2018-09-28T00:42:13.174Z,11.50
2018-09-28T00:44:42.999Z,11.60
2018-09-28T00:47:12.753Z,11.60
2018-09-28T00:49:42.406Z,11.50
2018-09-28T00:52:12.280Z,11.50
2018-09-28T00:54:41.932Z,11.40
2018-09-28T00:57:11.801Z,11.40
2018-09-28T00:59:46.576Z,11.40
2018-09-28T01:02:22.217Z,11.30
2018-09-28T01:04:59.683Z,11.30
2018-09-28T01:07:29.437Z,11.30
2018-09-28T01:09:59.193Z,11.30
2018-09-28T01:12:28.843Z,11.30
2018-09-28T01:14:58.629Z,11.20
2018-09-28T01:17:28.257Z,11.20
2018-09-28T01:19:57.858Z,11.20
2018-09-28T01:22:27.634Z,11.20
2018-09-28T01:24:57.394Z,11.20
2018-09-28T01:27:27.159Z,11.20
2018-09-28T01:29:56.808Z,11.10
2018-09-28T01:32:26.393Z,11.00
2018-09-28T01:34:56.040Z,11.10
2018-09-28T01:37:25.840Z,11.20
2018-09-28T01:39:55.563Z,11.20
2018-09-28T01:42:25.373Z,11.20
2018-09-28T01:44:55.186Z,11.20
2018-09-28T01:47:24.936Z,11.20
2018-09-28T01:49:54.697Z,11.20
2018-09-28T01:52:24.357Z,11.30
2018-09-28T01:54:54.012Z,11.30
2018-09-28T01:57:23.626Z,11.30
2018-09-28T01:59:53.401Z,11.30
2018-09-28T02:02:23.159Z,11.30
2018-09-28T02:04:52.825Z,11.30
2018-09-28T02:07:22.512Z,11.20
2018-09-28T02:09:52.170Z,11.10
2018-09-28T02:12:21.948Z,11.00
2018-09-28T02:14:51.688Z,11.00
2018-09-28T02:17:21.285Z,10.90
2018-09-28T02:19:51.103Z,10.90
2018-09-28T02:22:20.833Z,10.80
2018-09-28T02:24:50.608Z,10.80
2018-09-28T02:27:20.349Z,10.80
2018-09-28T02:29:50.228Z,10.90
2018-09-28T02:32:19.873Z,10.90
2018-09-28T02:34:49.564Z,10.90
2018-09-28T02:37:19.235Z,10.90
2018-09-28T02:39:48.787Z,10.90
2018-09-28T02:42:18.462Z,10.80
2018-09-28T02:44:48.108Z,10.80
2018-09-28T02:47:17.960Z,10.80
2018-09-28T02:49:47.625Z,10.80
2018-09-28T02:52:17.361Z,10.90
2018-09-28T02:54:47.104Z,10.80
2018-09-28T02:57:16.744Z,10.90
2018-09-28T02:59:46.429Z,10.80
2018-09-28T03:02:16.073Z,10.80
2018-09-28T03:04:45.801Z,10.60
2018-09-28T03:07:15.610Z,10.60
2018-09-28T03:09:45.208Z,10.50
2018-09-28T03:12:14.975Z,10.50
2018-09-28T03:14:44.737Z,10.50
2018-09-28T03:17:14.433Z,10.50
2018-09-28T03:19:44.045Z,10.50
2018-09-28T03:22:13.732Z,10.50
2018-09-28T03:24:43.432Z,10.60
2018-09-28T03:27:13.083Z,10.60
2018-09-28T03:29:42.940Z,10.70
2018-09-28T03:32:12.606Z,10.80
2018-09-28T03:34:42.276Z,10.70
2018-09-28T03:37:11.860Z,10.70
2018-09-28T03:39:41.637Z,10.70
2018-09-28T03:42:11.402Z,10.70
2018-09-28T03:44:41.036Z,10.70
2018-09-28T03:47:10.932Z,10.70
2018-09-28T03:49:40.566Z,10.70
2018-09-28T03:52:10.376Z,10.70
2018-09-28T03:54:40.196Z,10.70
2018-09-28T03:57:09.885Z,10.70
2018-09-28T03:59:39.566Z,10.70
2018-09-28T04:02:09.329Z,10.70
2018-09-28T04:04:39.091Z,10.60
2018-09-28T04:07:08.855Z,10.60
2018-09-28T04:09:38.527Z,10.60
2018-09-28T04:12:08.283Z,10.60
2018-09-28T04:14:38.120Z,10.60
2018-09-28T04:17:07.881Z,10.60
2018-09-28T04:19:37.632Z,10.60
2018-09-28T04:22:07.659Z,10.60
2018-09-28T04:24:37.404Z,10.60
2018-09-28T04:27:07.225Z,10.70
2018-09-28T04:29:36.812Z,10.70
2018-09-28T04:32:06.524Z,10.80
2018-09-28T04:34:36.271Z,10.80
2018-09-28T04:37:06.134Z,10.90
2018-09-28T04:39:35.909Z,10.80
2018-09-28T04:42:05.763Z,10.80
2018-09-28T04:44:35.304Z,10.70
2018-09-28T04:47:05.073Z,10.70
2018-09-28T04:49:34.738Z,10.60
2018-09-28T04:52:04.580Z,10.70
2018-09-28T04:54:34.333Z,10.70
2018-09-28T04:57:04.057Z,10.70
2018-09-28T04:59:33.676Z,10.80
2018-09-28T05:02:03.381Z,10.80
2018-09-28T05:04:33.055Z,10.70
2018-09-28T05:07:02.981Z,10.70
2018-09-28T05:09:32.624Z,10.70
2018-09-28T05:12:02.416Z,10.70
2018-09-28T05:14:32.249Z,10.80
2018-09-28T05:17:02.003Z,10.80
2018-09-28T05:19:31.778Z,10.70
2018-09-28T05:22:01.572Z,10.70
2018-09-28T05:24:31.384Z,10.80
2018-09-28T05:27:01.108Z,10.80
2018-09-28T05:29:30.871Z,10.90
2018-09-28T05:32:00.710Z,10.90
2018-09-28T05:34:30.386Z,11.00
2018-09-28T05:37:00.251Z,11.00
2018-09-28T05:39:30.130Z,11.00
2018-09-28T05:41:59.894Z,11.00
2018-09-28T05:44:29.588Z,11.10
2018-09-28T05:46:59.344Z,11.10
2018-09-28T05:49:29.112Z,11.20
2018-09-28T05:51:58.974Z,11.20
2018-09-28T05:54:28.621Z,11.30
2018-09-28T05:56:58.588Z,11.30
2018-09-28T05:59:33.384Z,11.30
2018-09-28T06:02:08.265Z,11.40
2018-09-28T06:04:43.021Z,11.40
2018-09-28T06:07:12.715Z,11.50
2018-09-28T06:09:42.442Z,11.60
2018-09-28T06:12:12.213Z,11.60
2018-09-28T06:14:42.020Z,11.60
2018-09-28T06:17:11.680Z,11.60
2018-09-28T06:19:41.463Z,11.70
2018-09-28T06:22:11.103Z,11.80
2018-09-28T06:24:40.777Z,11.80
2018-09-28T06:27:10.544Z,11.90
2018-09-28T06:29:40.462Z,11.80
2018-09-28T06:32:10.208Z,11.90
2018-09-28T06:34:39.936Z,11.90
2018-09-28T06:37:09.724Z,12.00
2018-09-28T06:39:39.489Z,12.00
2018-09-28T06:42:09.376Z,12.10
2018-09-28T06:44:39.413Z,12.20
2018-09-28T06:47:09.169Z,12.30
2018-09-28T06:49:38.892Z,12.30
2018-09-28T06:52:08.486Z,12.40
2018-09-28T06:54:38.154Z,12.60
2018-09-28T06:57:07.968Z,12.70
2018-09-28T06:59:37.769Z,12.80
2018-09-28T07:02:07.694Z,12.90
2018-09-28T07:04:37.496Z,12.90
2018-09-28T07:07:07.317Z,13.00
2018-09-28T07:09:37.087Z,13.00
2018-09-28T07:12:06.791Z,13.10
2018-09-28T07:14:36.597Z,13.20
2018-09-28T07:17:06.381Z,13.30
2018-09-28T07:19:36.249Z,13.40
2018-09-28T07:22:05.973Z,13.50
2018-09-28T07:24:35.780Z,13.60
2018-09-28T07:27:05.564Z,13.70
2018-09-28T07:29:35.354Z,13.70
2018-09-28T07:32:05.124Z,13.80
2018-09-28T07:34:34.827Z,13.90
2018-09-28T07:37:04.637Z,14.10
2018-09-28T07:39:34.359Z,14.20
2018-09-28T07:42:04.053Z,14.50
2018-09-28T07:44:33.828Z,15.80
2018-09-28T07:47:03.598Z,18.10
2018-09-28T07:49:33.457Z,20.30
2018-09-28T07:52:03.101Z,22.40
2018-09-28T07:54:32.775Z,23.90
2018-09-28T07:57:02.320Z,25.40
2018-09-28T07:59:32.044Z,26.20
2018-09-28T08:02:01.701Z,26.70
2018-09-28T08:04:31.362Z,27.30
2018-09-28T08:07:01.229Z,28.30
2018-09-28T08:09:30.872Z,28.60
2018-09-28T08:12:00.672Z,29.00
2018-09-28T08:14:30.453Z,29.70
2018-09-28T08:17:00.218Z,30.00
2018-09-28T08:19:29.972Z,29.70
2018-09-28T08:21:59.644Z,30.30
2018-09-28T08:24:29.337Z,31.00
2018-09-28T08:26:59.008Z,31.10
2018-09-28T08:29:28.556Z,31.50
2018-09-28T08:31:58.349Z,31.60
2018-09-28T08:34:28.174Z,31.40
2018-09-28T08:36:58.043Z,31.20
2018-09-28T08:39:27.603Z,31.10
2018-09-28T08:41:57.340Z,31.00
2018-09-28T08:44:27.112Z,31.00
2018-09-28T08:46:56.944Z,30.90
2018-09-28T08:49:26.842Z,30.80
2018-09-28T08:51:56.948Z,30.70
2018-09-28T08:54:26.731Z,31.10
2018-09-28T08:56:56.521Z,31.20
2018-09-28T08:59:26.264Z,31.50
2018-09-28T09:01:56.010Z,30.80
2018-09-28T09:04:25.777Z,29.70
2018-09-28T09:06:55.528Z,28.80
2018-09-28T09:09:25.235Z,28.30
2018-09-28T09:11:54.977Z,28.20
2018-09-28T09:14:24.671Z,27.90
2018-09-28T09:16:54.528Z,27.70
2018-09-28T09:19:24.393Z,27.50
2018-09-28T09:21:54.257Z,27.50
2018-09-28T09:24:23.997Z,27.10
2018-09-28T09:26:53.780Z,26.20
2018-09-28T09:29:23.431Z,25.50
2018-09-28T09:31:53.124Z,25.10
2018-09-28T09:34:22.812Z,24.90
2018-09-28T09:36:52.436Z,25.60
2018-09-28T09:39:22.220Z,26.00
2018-09-28T09:41:51.856Z,26.60
2018-09-28T09:44:21.643Z,27.50
2018-09-28T09:46:51.321Z,28.00
2018-09-28T09:49:21.344Z,28.30
2018-09-28T09:51:51.154Z,28.80
2018-09-28T09:54:20.810Z,28.90
2018-09-28T09:56:50.609Z,29.30
2018-09-28T09:59:20.336Z,29.50
2018-09-28T10:01:55.060Z,29.30
2018-09-28T10:04:24.544Z,29.90
2018-09-28T10:06:54.307Z,30.10
2018-09-28T10:09:24.172Z,30.20
2018-09-28T10:11:53.876Z,30.70
2018-09-28T10:14:23.649Z,30.30
2018-09-28T10:16:53.505Z,30.10
2018-09-28T10:19:23.357Z,29.20
2018-09-28T10:21:53.130Z,28.50
2018-09-28T10:24:22.804Z,28.10
2018-09-28T10:26:52.576Z,27.40
2018-09-28T10:29:22.204Z,26.40
2018-09-28T10:31:51.924Z,25.90
2018-09-28T10:34:21.505Z,25.50
2018-09-28T10:36:51.228Z,25.00
2018-09-28T10:39:20.954Z,24.60
2018-09-28T10:41:50.758Z,24.40
2018-09-28T10:44:20.608Z,24.20
2018-09-28T10:46:50.273Z,24.10
2018-09-28T10:49:19.947Z,23.80
2018-09-28T10:51:49.701Z,23.70
2018-09-28T10:54:19.512Z,23.70
2018-09-28T10:56:49.276Z,23.60
2018-09-28T10:59:19.151Z,23.60
2018-09-28T11:01:48.844Z,23.60
2018-09-28T11:04:18.481Z,23.40
2018-09-28T11:06:48.174Z,23.30
2018-09-28T11:09:17.969Z,23.20
2018-09-28T11:11:47.663Z,23.10
2018-09-28T11:14:17.555Z,23.00
2018-09-28T11:16:47.320Z,22.90
2018-09-28T11:19:17.177Z,22.80
2018-09-28T11:21:46.913Z,22.80
2018-09-28T11:24:16.535Z,22.60
2018-09-28T11:26:46.208Z,22.70
2018-09-28T11:29:15.856Z,22.80
2018-09-28T11:31:45.618Z,22.80
2018-09-28T11:34:15.272Z,22.80
2018-09-28T11:36:44.869Z,22.80
2018-09-28T11:39:14.663Z,23.00
2018-09-28T11:41:44.403Z,23.00
2018-09-28T11:44:14.268Z,23.00
2018-09-28T11:46:44.025Z,23.00
2018-09-28T11:49:14.070Z,22.90
2018-09-28T11:51:43.849Z,23.00
2018-09-28T11:54:13.526Z,23.00
2018-09-28T11:56:43.374Z,23.00
2018-09-28T11:59:14.203Z,23.00
2018-09-28T12:01:43.985Z,23.00
2018-09-28T12:04:13.709Z,23.20
2018-09-28T12:06:43.590Z,23.20
2018-09-28T12:09:14.203Z,23.20
2018-09-28T12:11:44.377Z,23.10
2018-09-28T12:14:14.079Z,23.10
2018-09-28T12:16:43.817Z,23.20
2018-09-28T12:19:13.384Z,23.20
2018-09-28T12:21:43.217Z,23.10
2018-09-28T12:24:13.055Z,23.10
2018-09-28T12:26:42.874Z,23.00
2018-09-28T12:29:12.473Z,23.00
2018-09-28T12:31:42.145Z,23.00
2018-09-28T12:34:11.799Z,23.00
2018-09-28T12:36:41.514Z,23.00
2018-09-28T12:39:12.686Z,23.00
2018-09-28T12:41:42.836Z,23.00
2018-09-28T12:44:12.533Z,23.00
2018-09-28T12:46:42.159Z,23.00
2018-09-28T12:49:11.852Z,23.00
2018-09-28T12:51:41.605Z,23.10
2018-09-28T12:54:11.390Z,23.10
2018-09-28T12:56:41.164Z,23.20
2018-09-28T12:59:11.136Z,23.30
2018-09-28T13:01:40.652Z,23.30
2018-09-28T13:04:17.439Z,23.30
2018-09-28T13:06:48.964Z,23.20
2018-09-28T13:09:18.483Z,23.10
2018-09-28T13:11:48.080Z,23.20
2018-09-28T13:14:17.747Z,23.10
2018-09-28T13:16:47.518Z,23.10
2018-09-28T13:19:16.914Z,23.00
2018-09-28T13:21:46.796Z,23.10
2018-09-28T13:24:16.628Z,23.10
2018-09-28T13:26:46.510Z,23.00
2018-09-28T13:29:16.897Z,23.00
2018-09-28T13:31:46.280Z,23.00
2018-09-28T13:34:15.922Z,23.20
2018-09-28T13:36:45.558Z,23.20
2018-09-28T13:39:15.177Z,23.30
2018-09-28T13:41:44.713Z,23.20
2018-09-28T13:44:14.317Z,23.10
2018-09-28T13:46:43.992Z,23.10
2018-09-28T13:49:13.564Z,23.00
2018-09-28T13:51:42.948Z,22.80
2018-09-28T13:54:12.350Z,22.80
2018-09-28T13:56:41.920Z,22.80
2018-09-28T13:59:11.665Z,22.70
2018-09-28T14:01:41.386Z,22.60
2018-09-28T14:04:10.788Z,22.50
2018-09-28T14:06:40.296Z,22.50
2018-09-28T14:09:10.568Z,22.50
2018-09-28T14:11:40.228Z,22.40
2018-09-28T14:14:09.864Z,22.30
2018-09-28T14:16:39.696Z,22.30
2018-09-28T14:19:09.459Z,22.20
2018-09-28T14:21:38.856Z,22.20
2018-09-28T14:24:08.501Z,22.20
2018-09-28T14:26:38.105Z,22.10
2018-09-28T14:29:07.763Z,22.00
2018-09-28T14:31:37.321Z,21.90
2018-09-28T14:34:07.050Z,21.90
2018-09-28T14:36:36.741Z,21.80
2018-09-28T14:39:09.610Z,21.80
2018-09-28T14:41:39.446Z,21.70
2018-09-28T14:44:09.324Z,21.70
2018-09-28T14:46:39.051Z,21.70
2018-09-28T14:49:08.562Z,21.60
2018-09-28T14:51:38.226Z,21.60
2018-09-28T14:54:07.957Z,21.50
2018-09-28T14:56:37.692Z,21.50
2018-09-28T14:59:07.178Z,21.40
2018-09-28T15:01:36.532Z,21.40
2018-09-28T15:04:05.905Z,21.40
2018-09-28T15:06:35.421Z,21.30
2018-09-28T15:09:05.810Z,21.30
2018-09-28T15:11:35.187Z,21.20
2018-09-28T15:14:04.599Z,21.10
2018-09-28T15:16:33.997Z,21.10
2018-09-28T15:19:03.414Z,21.10
2018-09-28T15:21:32.799Z,21.00
2018-09-28T15:24:02.219Z,20.90
2018-09-28T15:26:31.568Z,20.90
2018-09-28T15:29:00.931Z,20.90
2018-09-28T15:31:30.301Z,20.80
2018-09-28T15:33:59.676Z,20.70
2018-09-28T15:36:29.081Z,20.60
2018-09-28T15:38:58.444Z,20.50
2018-09-28T15:41:27.828Z,20.50
2018-09-28T15:43:57.181Z,20.40
2018-09-28T15:46:26.549Z,20.40
2018-09-28T15:48:55.936Z,20.30
2018-09-28T15:51:25.299Z,20.20
2018-09-28T15:53:55.048Z,20.20
2018-09-28T15:56:24.418Z,20.10
2018-09-28T15:58:53.784Z,20.00
2018-09-28T16:01:23.285Z,20.00
2018-09-28T16:03:52.678Z,20.00
2018-09-28T16:06:22.111Z,19.90
2018-09-28T16:08:51.516Z,19.90
2018-09-28T16:11:20.898Z,19.80
2018-09-28T16:13:50.246Z,19.80
2018-09-28T16:16:19.612Z,19.70
2018-09-28T16:18:49.224Z,19.60
2018-09-28T16:21:18.674Z,19.50
2018-09-28T16:23:48.063Z,19.50
2018-09-28T16:26:17.418Z,19.40
2018-09-28T16:28:46.782Z,19.40
2018-09-28T16:31:16.130Z,19.30
2018-09-28T16:33:45.486Z,19.20
2018-09-28T16:36:14.914Z,19.20
2018-09-28T16:38:47.384Z,19.10
2018-09-28T16:41:17.091Z,19.00
2018-09-28T16:43:46.776Z,19.00
2018-09-28T16:46:16.136Z,19.00
2018-09-28T16:48:45.508Z,18.90
2018-09-28T16:51:14.889Z,18.80
2018-09-28T16:53:44.252Z,18.70
2018-09-28T16:56:13.637Z,18.70
2018-09-28T16:58:42.980Z,18.70
2018-09-28T17:01:12.356Z,18.60
2018-09-28T17:03:41.761Z,18.60
2018-09-28T17:06:11.120Z,18.60
2018-09-28T17:08:40.508Z,18.70
2018-09-28T17:11:09.909Z,18.60
2018-09-28T17:13:39.268Z,18.70
2018-09-28T17:16:08.676Z,18.60
2018-09-28T17:18:38.055Z,18.60
2018-09-28T17:21:07.493Z,18.60
2018-09-28T17:23:36.869Z,18.70
2018-09-28T17:26:06.249Z,18.70
2018-09-28T17:28:35.638Z,18.70
2018-09-28T17:31:05.027Z,18.70
2018-09-28T17:33:34.389Z,18.70
2018-09-28T17:36:03.763Z,18.70
2018-09-28T17:38:33.130Z,18.70
2018-09-28T17:41:02.500Z,18.80
2018-09-28T17:43:31.854Z,18.80
2018-09-28T17:46:01.236Z,18.70
2018-09-28T17:48:30.651Z,18.80
2018-09-28T17:51:00.034Z,18.80
2018-09-28T17:53:29.380Z,18.80
2018-09-28T17:55:58.784Z,18.80
2018-09-28T17:58:28.156Z,18.80
2018-09-28T18:00:57.522Z,18.80
2018-09-28T18:03:26.872Z,18.80
2018-09-28T18:05:56.245Z,18.70
2018-09-28T18:08:25.692Z,18.70
2018-09-28T18:10:55.325Z,18.70
2018-09-28T18:13:24.685Z,18.70
2018-09-28T18:15:54.076Z,18.70
2018-09-28T18:18:23.444Z,18.60
2018-09-28T18:20:52.812Z,18.60
2018-09-28T18:23:22.216Z,18.60
2018-09-28T18:25:51.592Z,18.50
2018-09-28T18:28:21.128Z,18.50
2018-09-28T18:30:50.577Z,18.50
2018-09-28T18:33:19.948Z,18.50
2018-09-28T18:35:49.344Z,18.50
2018-09-28T18:38:18.697Z,18.40
2018-09-28T18:40:48.055Z,18.40
2018-09-28T18:43:17.437Z,18.40
2018-09-28T18:45:46.803Z,18.40
2018-09-28T18:48:16.177Z,18.30
2018-09-28T18:50:45.552Z,18.30
2018-09-28T18:53:14.916Z,18.20
2018-09-28T18:55:44.292Z,18.20
2018-09-28T18:58:13.732Z,18.10
2018-09-28T19:00:43.102Z,18.10
2018-09-28T19:03:12.536Z,18.10
2018-09-28T19:05:41.941Z,18.00
2018-09-28T19:08:11.389Z,18.00
2018-09-28T19:10:40.744Z,18.00
2018-09-28T19:13:10.164Z,18.00
2018-09-28T19:15:39.554Z,17.90
2018-09-28T19:18:09.024Z,17.90
2018-09-28T19:20:38.382Z,17.90
2018-09-28T19:23:07.741Z,17.90
2018-09-28T19:25:37.099Z,17.90
2018-09-28T19:28:07.401Z,17.90
2018-09-28T19:30:36.825Z,17.90
2018-09-28T19:33:06.172Z,17.80
2018-09-28T19:35:35.542Z,17.80
2018-09-28T19:38:04.948Z,17.70
2018-09-28T19:40:34.337Z,17.70
2018-09-28T19:43:03.708Z,17.70
2018-09-28T19:45:33.099Z,17.60
2018-09-28T19:48:02.506Z,17.50
2018-09-28T19:50:31.881Z,17.50
2018-09-28T19:53:01.234Z,17.50
2018-09-28T19:55:30.650Z,17.50
2018-09-28T19:58:00.043Z,17.50
2018-09-28T20:00:29.461Z,17.50
2018-09-28T20:02:58.832Z,17.50
2018-09-28T20:05:28.203Z,17.50
2018-09-28T20:07:57.625Z,17.40
2018-09-28T20:10:26.992Z,17.40
2018-09-28T20:12:56.395Z,17.30
2018-09-28T20:15:25.763Z,17.40
2018-09-28T20:17:55.124Z,17.30
2018-09-28T20:20:24.512Z,17.30
2018-09-28T20:22:53.904Z,17.30
2018-09-28T20:25:23.278Z,17.30
2018-09-28T20:27:52.662Z,17.30
2018-09-28T20:30:22.260Z,17.30
2018-09-28T20:32:51.946Z,17.30
2018-09-28T20:35:21.680Z,17.30
2018-09-28T20:37:51.305Z,17.30
2018-09-28T20:40:20.892Z,17.20
2018-09-28T20:42:50.567Z,17.20
2018-09-28T20:45:20.101Z,17.20
2018-09-28T20:47:49.654Z,17.20
2018-09-28T20:50:20.151Z,17.10
2018-09-28T20:52:49.940Z,17.10
2018-09-28T20:55:19.632Z,17.10
2018-09-28T20:57:48.987Z,17.10
2018-09-28T21:00:18.696Z,17.00
2018-09-28T21:02:48.065Z,17.00
2018-09-28T21:05:17.805Z,17.00
2018-09-28T21:07:47.765Z,17.00
2018-09-28T21:10:17.641Z,17.00
2018-09-28T21:12:47.409Z,16.90
2018-09-28T21:15:17.464Z,16.90
2018-09-28T21:17:47.102Z,16.80
2018-09-28T21:20:16.781Z,16.80
2018-09-28T21:22:46.328Z,16.80
2018-09-28T21:25:16.024Z,16.70
2018-09-28T21:27:45.811Z,16.60
2018-09-28T21:30:16.014Z,16.60
2018-09-28T21:32:45.789Z,16.60
2018-09-28T21:35:16.059Z,16.60
2018-09-28T21:37:45.716Z,16.50
2018-09-28T21:40:15.308Z,16.50
2018-09-28T21:42:45.296Z,16.50
2018-09-28T21:45:15.509Z,16.40
2018-09-28T21:47:45.669Z,16.40
2018-09-28T21:50:15.350Z,16.40
2018-09-28T21:52:45.096Z,16.30
2018-09-28T21:55:14.678Z,16.30
2018-09-28T21:57:45.268Z,16.30
2018-09-28T22:00:15.152Z,16.20
2018-09-28T22:02:46.096Z,16.20
2018-09-28T22:05:15.937Z,16.20
2018-09-28T22:07:45.988Z,16.10
2018-09-28T22:10:15.792Z,16.10
2018-09-28T22:12:45.443Z,16.10
2018-09-28T22:15:15.131Z,16.10
2018-09-28T22:17:44.856Z,16.10
2018-09-28T22:20:14.482Z,16.00
2018-09-28T22:22:44.242Z,16.00
2018-09-28T22:25:14.105Z,15.90
2018-09-28T22:27:43.972Z,15.90
2018-09-28T22:30:13.698Z,15.90
2018-09-28T22:32:43.385Z,15.90
2018-09-28T22:35:13.048Z,15.90
2018-09-28T22:37:43.003Z,15.80
2018-09-28T22:40:12.749Z,15.80
2018-09-28T22:42:42.346Z,15.80
2018-09-28T22:45:12.085Z,15.80
2018-09-28T22:47:41.758Z,15.80
2018-09-28T22:50:11.516Z,15.80
2018-09-28T22:52:41.223Z,15.80
2018-09-28T22:55:11.071Z,15.80
2018-09-28T22:57:40.728Z,15.80
2018-09-28T23:00:10.499Z,15.70
2018-09-28T23:02:40.156Z,15.70
2018-09-28T23:05:10.120Z,15.70
2018-09-28T23:07:39.899Z,15.60
2018-09-28T23:10:09.755Z,15.60
2018-09-28T23:12:39.416Z,15.50
2018-09-28T23:15:09.264Z,15.40
2018-09-28T23:17:39.021Z,15.40
2018-09-28T23:20:08.716Z,15.40
2018-09-28T23:22:38.442Z,15.40
2018-09-28T23:25:08.240Z,15.30
2018-09-28T23:27:38.027Z,15.30
2018-09-28T23:30:07.873Z,15.30
2018-09-28T23:32:37.544Z,15.30
2018-09-28T23:35:07.301Z,15.30
2018-09-28T23:37:37.072Z,15.30
2018-09-28T23:40:07.306Z,15.30
2018-09-28T23:42:36.996Z,15.20
2018-09-28T23:45:06.971Z,15.20
2018-09-28T23:47:36.698Z,15.30
2018-09-28T23:50:06.483Z,15.30
2018-09-28T23:52:36.193Z,15.20
2018-09-28T23:55:06.021Z,15.20
2018-09-28T23:57:35.901Z,15.30
